createdAt,value
2016-10-02T00:00:18.403Z,12.62
2016-10-02T00:01:19.084Z,12.61
2016-10-02T00:02:19.784Z,12.68
2016-10-02T00:03:20.487Z,12.65
2016-10-02T00:04:21.185Z,12.64
2016-10-02T00:05:21.864Z,12.62
2016-10-02T00:06:22.563Z,12.64
2016-10-02T00:07:23.258Z,12.64
2016-10-02T00:08:23.940Z,12.61
2016-10-02T00:09:24.613Z,12.64
2016-10-02T00:10:25.283Z,12.65
2016-10-02T00:11:25.956Z,12.67
2016-10-02T00:12:26.633Z,12.67
2016-10-02T00:13:27.347Z,12.65
2016-10-02T00:14:28.028Z,12.54
2016-10-02T00:15:28.707Z,12.5
2016-10-02T00:16:29.373Z,12.58
2016-10-02T00:17:30.048Z,12.5
2016-10-02T00:18:30.719Z,12.6
2016-10-02T00:19:31.463Z,12.5
2016-10-02T00:20:32.162Z,12.49
2016-10-02T00:21:32.840Z,12.45
2016-10-02T00:22:33.513Z,12.5
2016-10-02T00:23:34.183Z,12.36
2016-10-02T00:24:34.857Z,12.36
2016-10-02T00:25:35.530Z,12.37
2016-10-02T00:26:36.221Z,12.49
2016-10-02T00:27:36.914Z,12.35
2016-10-02T00:28:37.596Z,12.35
2016-10-02T00:29:38.268Z,12.46
2016-10-02T00:30:38.942Z,12.49
2016-10-02T00:31:39.613Z,12.4
2016-10-02T00:32:40.284Z,12.4
2016-10-02T00:33:41.010Z,12.43
2016-10-02T00:34:41.682Z,12.42
2016-10-02T00:35:42.352Z,12.39
2016-10-02T00:36:43.051Z,12.29
2016-10-02T00:37:43.726Z,12.31
2016-10-02T00:38:44.439Z,12.28
2016-10-02T00:39:45.128Z,12.22
2016-10-02T00:40:45.801Z,12.27
2016-10-02T00:41:46.467Z,12.25
2016-10-02T00:42:47.138Z,12.28
2016-10-02T00:43:47.823Z,12.35
2016-10-02T00:44:48.510Z,12.36
2016-10-02T00:45:49.198Z,12.4
2016-10-02T00:46:49.877Z,12.42
2016-10-02T00:47:50.591Z,12.36
2016-10-02T00:48:51.276Z,12.49
2016-10-02T00:49:51.953Z,12.39
2016-10-02T00:50:52.622Z,12.4
2016-10-02T00:51:53.362Z,12.43
2016-10-02T00:52:54.043Z,12.4
2016-10-02T00:53:54.757Z,12.46
2016-10-02T00:54:55.461Z,12.37
2016-10-02T00:55:56.138Z,12.5
2016-10-02T00:56:56.807Z,12.49
2016-10-02T00:57:57.486Z,12.54
2016-10-02T00:58:58.169Z,12.55
2016-10-02T00:59:58.873Z,12.55
2016-10-02T01:00:59.549Z,12.5
2016-10-02T01:02:00.270Z,12.53
2016-10-02T01:03:00.940Z,12.54
2016-10-02T01:04:01.616Z,12.65
2016-10-02T01:05:02.297Z,12.53
2016-10-02T01:06:02.969Z,12.49
2016-10-02T01:07:03.637Z,12.62
2016-10-02T01:08:10.959Z,12.64
2016-10-02T01:09:11.643Z,12.65
2016-10-02T01:10:12.316Z,12.65
2016-10-02T01:11:12.986Z,12.67
2016-10-02T01:12:13.659Z,12.65
2016-10-02T01:13:14.331Z,12.62
2016-10-02T01:14:15.020Z,12.64
2016-10-02T01:15:15.706Z,12.62
2016-10-02T01:16:16.397Z,12.6
2016-10-02T01:17:17.068Z,12.62
2016-10-02T01:18:17.742Z,12.65
2016-10-02T01:19:18.456Z,12.65
2016-10-02T01:20:19.133Z,12.57
2016-10-02T01:21:19.809Z,12.53
2016-10-02T01:22:20.527Z,12.65
2016-10-02T01:23:21.200Z,12.61
2016-10-02T01:24:21.876Z,12.57
2016-10-02T01:25:22.560Z,12.64
2016-10-02T01:26:23.247Z,12.5
2016-10-02T01:27:23.918Z,12.62
2016-10-02T01:28:24.629Z,12.65
2016-10-02T01:29:25.307Z,12.6
2016-10-02T01:30:25.983Z,12.53
2016-10-02T01:31:26.693Z,12.57
2016-10-02T01:32:27.375Z,12.54
2016-10-02T01:33:28.068Z,12.65
2016-10-02T01:34:28.747Z,12.65
2016-10-02T01:35:29.425Z,12.64
2016-10-02T01:36:30.112Z,12.55
2016-10-02T01:37:30.787Z,12.49
2016-10-02T01:38:31.463Z,12.49
2016-10-02T01:39:32.180Z,12.57
2016-10-02T01:40:32.846Z,12.54
2016-10-02T01:41:33.537Z,12.65
2016-10-02T01:42:34.239Z,12.5
2016-10-02T01:43:34.928Z,12.53
2016-10-02T01:44:35.618Z,12.62
2016-10-02T01:45:36.308Z,12.58
2016-10-02T01:46:36.993Z,12.5
2016-10-02T01:47:37.669Z,12.58
2016-10-02T01:48:38.341Z,12.55
2016-10-02T01:49:39.015Z,12.46
2016-10-02T01:50:39.685Z,12.5
2016-10-02T01:51:40.356Z,12.5
2016-10-02T01:52:41.033Z,12.53
2016-10-02T01:53:41.699Z,12.61
2016-10-02T01:54:42.371Z,12.47
2016-10-02T01:55:43.047Z,12.58
2016-10-02T01:56:43.717Z,12.5
2016-10-02T01:57:44.395Z,12.47
2016-10-02T01:58:45.109Z,12.6
2016-10-02T01:59:45.786Z,12.5
2016-10-02T02:00:46.462Z,12.49
2016-10-02T02:01:47.134Z,12.54
2016-10-02T02:02:47.805Z,12.55
2016-10-02T02:03:48.473Z,12.53
2016-10-02T02:04:49.183Z,12.5
2016-10-02T02:05:49.870Z,12.5
2016-10-02T02:06:50.536Z,12.53
2016-10-02T02:07:51.209Z,12.5
2016-10-02T02:08:51.893Z,12.64
2016-10-02T02:09:52.571Z,12.61
2016-10-02T02:10:53.247Z,12.54
2016-10-02T02:11:53.912Z,12.5
2016-10-02T02:12:54.601Z,12.6
2016-10-02T02:13:55.327Z,12.54
2016-10-02T02:14:56.027Z,12.6
2016-10-02T02:15:56.696Z,12.6
2016-10-02T02:16:57.375Z,12.64
2016-10-02T02:17:58.052Z,12.6
2016-10-02T02:18:58.728Z,12.64
2016-10-02T02:19:59.435Z,12.64
2016-10-02T02:21:00.110Z,12.5
2016-10-02T02:22:00.797Z,12.5
2016-10-02T02:23:01.482Z,12.5
2016-10-02T02:24:02.156Z,12.54
2016-10-02T02:25:02.835Z,12.43
2016-10-02T02:26:03.522Z,12.42
2016-10-02T02:27:04.193Z,12.35
2016-10-02T02:28:04.876Z,12.43
2016-10-02T02:29:05.556Z,12.37
2016-10-02T02:30:06.242Z,12.4
2016-10-02T02:31:06.950Z,12.42
2016-10-02T02:32:07.636Z,12.43
2016-10-02T02:33:08.317Z,12.42
2016-10-02T02:34:08.995Z,12.32
2016-10-02T02:35:09.666Z,12.36
2016-10-02T02:36:10.340Z,12.37
2016-10-02T02:37:11.033Z,12.32
2016-10-02T02:38:11.709Z,12.29
2016-10-02T02:39:12.391Z,12.25
2016-10-02T02:40:13.070Z,12.22
2016-10-02T02:41:13.780Z,12.22
2016-10-02T02:42:14.456Z,12.21
2016-10-02T02:43:15.140Z,12.22
2016-10-02T02:44:15.824Z,12.18
2016-10-02T02:45:16.495Z,12.2
2016-10-02T02:46:17.166Z,12.24
2016-10-02T02:47:17.839Z,12.18
2016-10-02T02:48:18.511Z,12.28
2016-10-02T02:49:19.184Z,12.24
2016-10-02T02:50:19.859Z,12.15
2016-10-02T02:51:20.531Z,12.2
2016-10-02T02:52:21.201Z,12.15
2016-10-02T02:53:21.897Z,12.13
2016-10-02T02:54:22.576Z,12.15
2016-10-02T02:55:23.261Z,12.15
2016-10-02T02:56:23.942Z,12.15
2016-10-02T02:57:24.638Z,12.12
2016-10-02T02:58:25.310Z,12.15
2016-10-02T02:59:26.006Z,12.07
2016-10-02T03:00:26.683Z,12.07
2016-10-02T03:01:27.367Z,12.06
2016-10-02T03:02:28.064Z,12.1
2016-10-02T03:03:28.747Z,12.13
2016-10-02T03:04:29.438Z,12.03
2016-10-02T03:05:30.124Z,12.1
2016-10-02T03:06:30.796Z,12
2016-10-02T03:07:31.469Z,12.07
2016-10-02T03:08:32.143Z,12.1
2016-10-02T03:09:32.815Z,12.04
2016-10-02T03:10:33.489Z,12.07
2016-10-02T03:11:34.171Z,12.06
2016-10-02T03:12:34.852Z,12.06
2016-10-02T03:13:35.523Z,12.06
2016-10-02T03:14:36.211Z,12.03
2016-10-02T03:15:36.898Z,12.15
2016-10-02T03:16:37.583Z,12
2016-10-02T03:17:38.253Z,12.03
2016-10-02T03:18:38.952Z,12.07
2016-10-02T03:19:39.691Z,12.1
2016-10-02T03:20:40.338Z,12.13
2016-10-02T03:21:41.035Z,12.13
2016-10-02T03:22:41.707Z,12.18
2016-10-02T03:23:42.408Z,12.22
2016-10-02T03:24:43.092Z,12.22
2016-10-02T03:25:43.767Z,12.18
2016-10-02T03:26:44.439Z,12.21
2016-10-02T03:27:45.124Z,12.18
2016-10-02T03:28:45.833Z,12.24
2016-10-02T03:29:46.510Z,12.21
2016-10-02T03:30:47.185Z,12.25
2016-10-02T03:31:47.856Z,12.21
2016-10-02T03:32:48.525Z,12.21
2016-10-02T03:33:49.200Z,12.22
2016-10-02T03:34:49.878Z,12.24
2016-10-02T03:35:50.550Z,12.27
2016-10-02T03:36:51.223Z,12.28
2016-10-02T03:37:51.892Z,12.29
2016-10-02T03:38:52.558Z,12.27
2016-10-02T03:39:53.232Z,12.22
2016-10-02T03:40:53.914Z,12.25
2016-10-02T03:41:54.584Z,12.22
2016-10-02T03:42:55.258Z,12.29
2016-10-02T03:43:55.929Z,12.28
2016-10-02T03:44:56.639Z,12.27
2016-10-02T03:45:57.326Z,12.25
2016-10-02T03:46:58.002Z,12.28
2016-10-02T03:47:58.692Z,12.28
2016-10-02T03:48:59.367Z,12.22
2016-10-02T03:50:00.037Z,12.22
2016-10-02T03:51:00.727Z,12.27
2016-10-02T03:52:01.397Z,12.29
2016-10-02T03:53:02.078Z,12.32
2016-10-02T03:54:02.781Z,12.27
2016-10-02T03:55:03.460Z,12.31
2016-10-02T03:56:04.150Z,12.31
2016-10-02T03:57:04.825Z,12.25
2016-10-02T03:58:05.497Z,12.27
2016-10-02T03:59:06.196Z,12.25
2016-10-02T04:00:06.869Z,12.32
2016-10-02T04:01:07.540Z,12.28
2016-10-02T04:02:08.225Z,12.28
2016-10-02T04:03:08.906Z,12.32
2016-10-02T04:04:09.578Z,12.29
2016-10-02T04:05:10.291Z,12.25
2016-10-02T04:06:10.979Z,12.31
2016-10-02T04:07:11.674Z,12.29
2016-10-02T04:08:12.346Z,12.25
2016-10-02T04:09:13.021Z,12.31
2016-10-02T04:10:13.761Z,12.27
2016-10-02T04:11:14.468Z,12.32
2016-10-02T04:12:15.582Z,12.25
2016-10-02T04:13:16.841Z,12.27
2016-10-02T04:14:17.513Z,12.36
2016-10-02T04:15:18.195Z,12.27
2016-10-02T04:16:18.973Z,12.24
2016-10-02T04:17:19.657Z,12.24
2016-10-02T04:18:20.344Z,12.31
2016-10-02T04:19:21.036Z,12.22
2016-10-02T04:20:21.751Z,12.29
2016-10-02T04:21:22.440Z,12.29
2016-10-02T04:22:23.121Z,12.25
2016-10-02T04:23:23.807Z,12.28
2016-10-02T04:24:24.504Z,12.25
2016-10-02T04:25:25.191Z,12.18
2016-10-02T04:26:25.874Z,12.22
2016-10-02T04:27:26.553Z,12.25
2016-10-02T04:28:27.292Z,12.22
2016-10-02T04:29:27.986Z,12.24
2016-10-02T04:30:28.669Z,12.24
2016-10-02T04:31:29.345Z,12.18
2016-10-02T04:32:30.016Z,12.22
2016-10-02T04:33:30.692Z,12.2
2016-10-02T04:34:31.396Z,12.22
2016-10-02T04:35:32.071Z,12.21
2016-10-02T04:36:32.742Z,12.13
2016-10-02T04:37:33.423Z,12.22
2016-10-02T04:38:34.105Z,12.15
2016-10-02T04:39:34.778Z,12.17
2016-10-02T04:40:35.477Z,12.2
2016-10-02T04:41:36.180Z,12.15
2016-10-02T04:42:36.849Z,12.21
2016-10-02T04:43:37.544Z,12.17
2016-10-02T04:44:38.331Z,12.13
2016-10-02T04:45:39.007Z,12.12
2016-10-02T04:46:39.688Z,12.15
2016-10-02T04:47:40.367Z,12.13
2016-10-02T04:48:41.064Z,12.15
2016-10-02T04:49:41.736Z,12.17
2016-10-02T04:50:42.412Z,12.24
2016-10-02T04:51:43.090Z,12.15
2016-10-02T04:52:43.764Z,12.28
2016-10-02T04:53:44.449Z,12.24
2016-10-02T04:54:45.123Z,12.21
2016-10-02T04:55:45.799Z,12.32
2016-10-02T04:56:46.467Z,12.27
2016-10-02T04:57:47.149Z,12.27
2016-10-02T04:58:48.847Z,12.36
2016-10-02T04:59:49.534Z,12.4
2016-10-02T05:00:50.213Z,12.39
2016-10-02T05:01:50.898Z,12.4
2016-10-02T05:02:51.557Z,12.45
2016-10-02T05:03:52.230Z,12.53
2016-10-02T05:04:52.900Z,12.4
2016-10-02T05:05:53.588Z,12.53
2016-10-02T05:06:54.264Z,12.43
2016-10-02T05:07:54.977Z,12.4
2016-10-02T05:08:55.746Z,12.57
2016-10-02T05:09:56.787Z,12.47
2016-10-02T05:10:57.508Z,12.58
2016-10-02T05:11:58.226Z,12.62
2016-10-02T05:12:58.919Z,12.53
2016-10-02T05:13:59.600Z,12.64
2016-10-02T05:15:00.745Z,12.61
2016-10-02T05:16:01.891Z,12.6
2016-10-02T05:17:03.044Z,12.6
2016-10-02T05:18:04.070Z,12.68
2016-10-02T05:19:04.802Z,12.65
2016-10-02T05:20:05.560Z,12.62
2016-10-02T05:21:06.253Z,12.65
2016-10-02T05:22:07.205Z,12.61
2016-10-02T05:23:07.955Z,12.64
2016-10-02T05:24:08.695Z,12.62
2016-10-02T05:25:09.445Z,12.58
2016-10-02T05:26:10.075Z,12.67
2016-10-02T05:27:10.807Z,12.67
2016-10-02T05:28:11.522Z,12.62
2016-10-02T05:29:12.254Z,12.68
2016-10-02T05:30:13.066Z,12.65
2016-10-02T05:31:13.780Z,12.64
2016-10-02T05:32:14.487Z,12.64
2016-10-02T05:33:15.199Z,12.65
2016-10-02T05:34:15.951Z,12.61
2016-10-02T05:35:16.629Z,12.49
2016-10-02T05:36:17.304Z,12.5
2016-10-02T05:37:17.983Z,12.54
2016-10-02T05:38:18.654Z,12.54
2016-10-02T05:39:19.331Z,12.49
2016-10-02T05:40:20.008Z,12.5
2016-10-02T05:41:20.702Z,12.4
2016-10-02T05:42:21.384Z,12.37
2016-10-02T05:43:22.055Z,12.4
2016-10-02T05:44:22.728Z,12.37
2016-10-02T05:45:23.404Z,12.47
2016-10-02T05:46:24.075Z,12.49
2016-10-02T05:47:24.759Z,12.42
2016-10-02T05:48:25.427Z,12.39
2016-10-02T05:49:26.107Z,12.31
2016-10-02T05:50:26.802Z,12.43
2016-10-02T05:51:27.486Z,12.37
2016-10-02T05:52:28.223Z,12.36
2016-10-02T05:53:28.914Z,12.53
2016-10-02T05:54:29.602Z,12.39
2016-10-02T05:55:30.290Z,12.39
2016-10-02T05:56:30.963Z,12.43
2016-10-02T05:57:31.640Z,12.4
2016-10-02T05:58:32.309Z,12.46
2016-10-02T05:59:32.983Z,12.4
2016-10-02T06:00:33.653Z,12.49
2016-10-02T06:01:34.332Z,12.39
2016-10-02T06:02:35.026Z,12.5
2016-10-02T06:03:35.720Z,12.49
2016-10-02T06:04:36.392Z,12.4
2016-10-02T06:05:37.068Z,12.43
2016-10-02T06:06:37.739Z,12.46
2016-10-02T06:07:38.426Z,12.36
2016-10-02T06:08:39.137Z,12.4
2016-10-02T06:09:39.846Z,12.42
2016-10-02T06:10:40.522Z,12.5
2016-10-02T06:11:41.195Z,12.42
2016-10-02T06:12:41.888Z,12.42
2016-10-02T06:13:43.566Z,12.4
2016-10-02T06:14:44.241Z,12.42
2016-10-02T06:15:44.965Z,12.39
2016-10-02T06:16:45.643Z,12.39
2016-10-02T06:17:46.331Z,12.39
2016-10-02T06:18:47.001Z,12.39
2016-10-02T06:19:47.682Z,12.39
2016-10-02T06:20:48.357Z,12.42
2016-10-02T06:21:49.043Z,12.42
2016-10-02T06:22:49.726Z,12.29
2016-10-02T06:23:50.396Z,12.35
2016-10-02T06:24:51.083Z,12.39
2016-10-02T06:25:51.758Z,12.36
2016-10-02T06:26:52.432Z,12.39
2016-10-02T06:27:53.107Z,12.4
2016-10-02T06:28:53.786Z,12.46
2016-10-02T06:29:54.486Z,12.49
2016-10-02T06:30:55.185Z,12.57
2016-10-02T06:31:55.875Z,12.55
2016-10-02T06:32:56.556Z,12.67
2016-10-02T06:33:57.233Z,12.64
2016-10-02T06:34:57.912Z,12.64
2016-10-02T06:35:58.582Z,12.79
2016-10-02T06:36:59.257Z,12.9
2016-10-02T06:37:59.952Z,13.19
2016-10-02T06:39:00.646Z,13.54
2016-10-02T06:40:01.343Z,13.71
2016-10-02T06:41:02.023Z,13.79
2016-10-02T06:42:02.718Z,13.85
2016-10-02T06:43:03.398Z,14.12
2016-10-02T06:44:04.068Z,14.45
2016-10-02T06:45:04.741Z,14.73
2016-10-02T06:46:05.456Z,14.51
2016-10-02T06:47:06.133Z,14.66
2016-10-02T06:48:06.809Z,14.86
2016-10-02T06:49:07.491Z,15.28
2016-10-02T06:50:08.177Z,15.51
2016-10-02T06:51:08.873Z,15.65
2016-10-02T06:52:09.552Z,15.88
2016-10-02T06:53:10.235Z,16.08
2016-10-02T06:54:10.923Z,16.21
2016-10-02T06:55:11.617Z,16.33
2016-10-02T06:56:12.305Z,16.43
2016-10-02T06:57:13.008Z,16.51
2016-10-02T06:58:13.686Z,16.42
2016-10-02T06:59:14.396Z,16.61
2016-10-02T07:00:15.079Z,16.66
2016-10-02T07:01:15.760Z,16.51
2016-10-02T07:02:16.464Z,16.71
2016-10-02T07:03:17.148Z,16.71
2016-10-02T07:04:17.828Z,16.71
2016-10-02T07:05:18.516Z,16.42
2016-10-02T07:06:19.221Z,16.6
2016-10-02T07:07:19.906Z,16.76
2016-10-02T07:08:20.614Z,16.94
2016-10-02T07:09:21.292Z,17.11
2016-10-02T07:10:22.001Z,17.2
2016-10-02T07:11:22.714Z,17.26
2016-10-02T07:12:23.411Z,17.26
2016-10-02T07:13:24.115Z,17.31
2016-10-02T07:14:24.815Z,17.57
2016-10-02T07:15:25.522Z,17.49
2016-10-02T07:16:26.223Z,17.54
2016-10-02T07:17:26.927Z,17.8
2016-10-02T07:18:27.624Z,17.57
2016-10-02T07:19:28.320Z,17.52
2016-10-02T07:20:29.011Z,17.45
2016-10-02T07:21:29.695Z,17.41
2016-10-02T07:22:30.397Z,17.46
2016-10-02T07:23:31.075Z,17.76
2016-10-02T07:24:31.768Z,17.9
2016-10-02T07:25:32.459Z,18.03
2016-10-02T07:26:33.144Z,17.92
2016-10-02T07:27:33.837Z,17.87
2016-10-02T07:28:34.527Z,17.86
2016-10-02T07:29:35.223Z,17.72
2016-10-02T07:30:35.901Z,17.67
2016-10-02T07:31:36.598Z,17.48
2016-10-02T07:32:37.304Z,17.52
2016-10-02T07:33:37.995Z,17.63
2016-10-02T07:34:38.687Z,17.74
2016-10-02T07:35:39.387Z,17.49
2016-10-02T07:36:40.096Z,17.46
2016-10-02T07:37:40.796Z,17.49
2016-10-02T07:38:41.488Z,17.48
2016-10-02T07:39:42.175Z,17.26
2016-10-02T07:40:42.873Z,17.02
2016-10-02T07:41:43.557Z,16.93
2016-10-02T07:42:44.240Z,16.68
2016-10-02T07:43:44.957Z,16.29
2016-10-02T07:44:45.650Z,16.15
2016-10-02T07:45:46.342Z,16.05
2016-10-02T07:46:47.027Z,16.13
2016-10-02T07:47:47.742Z,15.97
2016-10-02T07:48:48.422Z,15.82
2016-10-02T07:49:49.136Z,15.64
2016-10-02T07:50:49.822Z,15.49
2016-10-02T07:51:50.511Z,15.44
2016-10-02T07:52:51.196Z,15.27
2016-10-02T07:53:51.894Z,15.18
2016-10-02T07:54:52.579Z,15.18
2016-10-02T07:55:53.265Z,15.37
2016-10-02T07:56:53.957Z,15.54
2016-10-02T07:57:54.650Z,15.62
2016-10-02T07:58:55.341Z,15.88
2016-10-02T07:59:56.038Z,16.09
2016-10-02T08:00:56.738Z,16.12
2016-10-02T08:01:57.416Z,16.28
2016-10-02T08:02:58.113Z,16.57
2016-10-02T08:03:58.802Z,16.75
2016-10-02T08:04:59.516Z,16.74
2016-10-02T08:06:00.205Z,16.83
2016-10-02T08:07:00.900Z,17.08
2016-10-02T08:08:01.601Z,17.12
2016-10-02T08:09:02.318Z,17.22
2016-10-02T08:10:03.018Z,17.29
2016-10-02T08:11:03.723Z,17.29
2016-10-02T08:12:04.429Z,17.27
2016-10-02T08:13:05.125Z,17.31
2016-10-02T08:14:05.830Z,17.16
2016-10-02T08:15:06.532Z,17.24
2016-10-02T08:16:07.235Z,17.39
2016-10-02T08:17:07.928Z,17.51
2016-10-02T08:18:08.618Z,17.68
2016-10-02T08:19:09.307Z,17.74
2016-10-02T08:20:10.015Z,17.82
2016-10-02T08:21:10.719Z,17.9
2016-10-02T08:22:11.440Z,17.92
2016-10-02T08:23:12.143Z,18.03
2016-10-02T08:24:12.832Z,18.18
2016-10-02T08:25:13.541Z,18.23
2016-10-02T08:26:14.241Z,18.29
2016-10-02T08:27:14.943Z,18.45
2016-10-02T08:28:15.638Z,18.45
2016-10-02T08:29:16.343Z,18.53
2016-10-02T08:30:17.029Z,18.56
2016-10-02T08:31:17.755Z,18.05
2016-10-02T08:32:18.440Z,17.95
2016-10-02T08:33:19.142Z,17.87
2016-10-02T08:34:19.843Z,18.04
2016-10-02T08:35:20.545Z,18.07
2016-10-02T08:36:21.265Z,18.04
2016-10-02T08:37:21.979Z,18.01
2016-10-02T08:38:22.667Z,17.97
2016-10-02T08:39:23.383Z,18.19
2016-10-02T08:40:24.075Z,18.29
2016-10-02T08:41:24.776Z,18.31
2016-10-02T08:42:25.458Z,18.1
2016-10-02T08:43:26.159Z,18.16
2016-10-02T08:44:26.855Z,18.16
2016-10-02T08:45:27.576Z,18.41
2016-10-02T08:46:28.290Z,18.45
2016-10-02T08:47:29.003Z,18.56
2016-10-02T08:48:29.693Z,18.6
2016-10-02T08:49:30.395Z,18.53
2016-10-02T08:50:31.094Z,18.52
2016-10-02T08:51:31.788Z,18.41
2016-10-02T08:52:32.482Z,18.34
2016-10-02T08:53:33.174Z,17.76
2016-10-02T08:54:33.876Z,17.46
2016-10-02T08:55:34.587Z,17.33
2016-10-02T08:56:35.280Z,17.3
2016-10-02T08:57:35.972Z,17.19
2016-10-02T08:58:36.685Z,17.04
2016-10-02T08:59:37.390Z,16.93
2016-10-02T09:00:38.112Z,16.76
2016-10-02T09:01:38.817Z,16.69
2016-10-02T09:02:39.504Z,16.56
2016-10-02T09:03:40.200Z,16.58
2016-10-02T09:04:40.901Z,16.47
2016-10-02T09:05:41.589Z,16.33
2016-10-02T09:06:42.295Z,16.36
2016-10-02T09:07:42.988Z,16.35
2016-10-02T09:08:43.679Z,16.32
2016-10-02T09:09:44.362Z,16.29
2016-10-02T09:10:45.059Z,16.17
2016-10-02T09:11:45.744Z,16.17
2016-10-02T09:12:46.447Z,16.05
2016-10-02T09:13:47.135Z,15.92
2016-10-02T09:14:47.872Z,15.83
2016-10-02T09:15:48.532Z,15.92
2016-10-02T09:16:49.240Z,15.77
2016-10-02T09:17:49.933Z,15.82
2016-10-02T09:18:50.628Z,15.88
2016-10-02T09:19:51.370Z,15.88
2016-10-02T09:20:52.073Z,15.97
2016-10-02T09:21:52.796Z,15.79
2016-10-02T09:22:53.500Z,15.76
2016-10-02T09:23:54.233Z,15.79
2016-10-02T09:24:54.933Z,15.75
2016-10-02T09:25:55.625Z,15.7
2016-10-02T09:26:56.312Z,15.76
2016-10-02T09:27:57.029Z,15.68
2016-10-02T09:28:57.708Z,15.68
2016-10-02T09:29:58.428Z,15.84
2016-10-02T09:30:59.107Z,15.84
2016-10-02T09:31:59.803Z,15.91
2016-10-02T09:33:00.512Z,15.84
2016-10-02T09:34:01.209Z,15.98
2016-10-02T09:35:01.887Z,15.94
2016-10-02T09:36:02.645Z,16.01
2016-10-02T09:37:03.333Z,16.04
2016-10-02T09:38:04.081Z,16.1
2016-10-02T09:39:04.827Z,16.13
2016-10-02T09:40:05.508Z,16.16
2016-10-02T09:41:06.234Z,16.04
2016-10-02T09:42:06.977Z,15.97
2016-10-02T09:43:07.702Z,15.83
2016-10-02T09:44:08.410Z,15.94
2016-10-02T09:45:09.159Z,15.95
2016-10-02T09:46:09.893Z,16
2016-10-02T09:47:10.626Z,15.94
2016-10-02T09:48:11.417Z,15.92
2016-10-02T09:49:12.268Z,15.95
2016-10-02T09:50:12.951Z,15.68
2016-10-02T09:51:13.707Z,15.58
2016-10-02T09:52:14.486Z,15.44
2016-10-02T09:53:15.233Z,15.47
2016-10-02T09:54:15.984Z,15.44
2016-10-02T09:55:16.691Z,15.37
2016-10-02T09:56:17.384Z,15.43
2016-10-02T09:57:18.135Z,15.47
2016-10-02T09:58:18.853Z,15.44
2016-10-02T09:59:19.672Z,15.51
2016-10-02T10:00:20.507Z,15.47
2016-10-02T10:01:21.265Z,15.43
2016-10-02T10:02:22.042Z,15.4
2016-10-02T10:03:22.834Z,15.39
2016-10-02T10:04:23.662Z,15.37
2016-10-02T10:05:24.387Z,15.42
2016-10-02T10:06:25.128Z,15.51
2016-10-02T10:07:25.870Z,15.51
2016-10-02T10:08:26.629Z,15.59
2016-10-02T10:09:27.421Z,15.55
2016-10-02T10:10:28.520Z,15.44
2016-10-02T10:11:29.662Z,15.52
2016-10-02T10:12:30.716Z,15.57
2016-10-02T10:13:31.564Z,15.64
2016-10-02T10:14:32.264Z,15.62
2016-10-02T10:15:32.961Z,15.61
2016-10-02T10:16:33.659Z,15.68
2016-10-02T10:17:34.409Z,15.7
2016-10-02T10:18:35.283Z,15.64
2016-10-02T10:19:36.041Z,15.68
2016-10-02T10:20:37.072Z,15.65
2016-10-02T10:21:37.807Z,15.59
2016-10-02T10:22:38.547Z,15.61
2016-10-02T10:23:39.279Z,15.61
2016-10-02T10:24:40.030Z,15.67
2016-10-02T10:25:40.782Z,15.51
2016-10-02T10:26:41.559Z,15.52
2016-10-02T10:27:42.317Z,15.47
2016-10-02T10:28:43.101Z,15.43
2016-10-02T10:29:43.815Z,15.47
2016-10-02T10:30:44.520Z,15.35
2016-10-02T10:31:45.220Z,15.29
2016-10-02T10:32:45.907Z,15.37
2016-10-02T10:33:46.606Z,15.28
2016-10-02T10:34:47.316Z,15.42
2016-10-02T10:35:48.019Z,15.44
2016-10-02T10:36:48.695Z,15.47
2016-10-02T10:37:49.379Z,15.44
2016-10-02T10:38:50.092Z,15.57
2016-10-02T10:39:50.778Z,15.52
2016-10-02T10:40:51.483Z,15.62
2016-10-02T10:41:52.160Z,15.61
2016-10-02T10:42:52.838Z,15.61
2016-10-02T10:43:53.924Z,15.68
2016-10-02T10:44:54.601Z,15.67
2016-10-02T10:45:55.299Z,15.72
2016-10-02T10:46:55.983Z,15.72
2016-10-02T10:47:56.667Z,15.68
2016-10-02T10:48:57.341Z,15.64
2016-10-02T10:49:58.054Z,15.61
2016-10-02T10:50:58.733Z,15.61
2016-10-02T10:51:59.448Z,15.67
2016-10-02T10:53:00.135Z,15.7
2016-10-02T10:54:00.845Z,15.67
2016-10-02T10:55:01.562Z,15.72
2016-10-02T10:56:02.244Z,15.76
2016-10-02T10:57:02.942Z,15.72
2016-10-02T10:58:03.631Z,15.73
2016-10-02T10:59:04.312Z,15.73
2016-10-02T11:00:05.010Z,15.73
2016-10-02T11:01:05.704Z,15.73
2016-10-02T11:02:06.382Z,15.8
2016-10-02T11:03:07.061Z,15.82
2016-10-02T11:04:07.740Z,15.88
2016-10-02T11:05:08.425Z,15.73
2016-10-02T11:06:09.122Z,15.92
2016-10-02T11:07:09.805Z,15.83
2016-10-02T11:08:10.544Z,15.84
2016-10-02T11:09:11.424Z,15.97
2016-10-02T11:10:12.133Z,15.95
2016-10-02T11:11:12.847Z,15.98
2016-10-02T11:12:13.545Z,15.84
2016-10-02T11:13:14.372Z,15.91
2016-10-02T11:14:15.064Z,15.95
2016-10-02T11:15:15.743Z,15.98
2016-10-02T11:16:16.450Z,16.04
2016-10-02T11:17:17.127Z,16.09
2016-10-02T11:18:17.816Z,16.09
2016-10-02T11:19:18.510Z,16.09
2016-10-02T11:20:19.998Z,16.1
2016-10-02T11:21:20.689Z,16.1
2016-10-02T11:22:21.561Z,16.15
2016-10-02T11:23:25.219Z,16.2
2016-10-02T11:24:25.914Z,16.2
2016-10-02T11:25:26.942Z,16.21
2016-10-02T11:26:27.406Z,16.36
2016-10-02T11:27:28.143Z,16.33
2016-10-02T11:28:28.852Z,16.41
2016-10-02T11:29:29.569Z,16.47
2016-10-02T11:30:30.247Z,16.58
2016-10-02T11:31:30.924Z,16.65
2016-10-02T11:32:31.624Z,16.71
2016-10-02T11:33:32.891Z,16.69
2016-10-02T11:34:33.578Z,16.76
2016-10-02T11:35:34.271Z,16.69
2016-10-02T11:36:34.954Z,16.74
2016-10-02T11:37:35.659Z,16.72
2016-10-02T11:38:36.342Z,16.68
2016-10-02T11:39:37.053Z,16.84
2016-10-02T11:40:37.764Z,16.87
2016-10-02T11:41:38.481Z,16.87
2016-10-02T11:42:39.173Z,16.89
2016-10-02T11:43:39.866Z,16.75
2016-10-02T11:44:40.593Z,16.75
2016-10-02T11:45:41.298Z,16.72
2016-10-02T11:46:41.987Z,16.79
2016-10-02T11:47:42.699Z,16.81
2016-10-02T11:48:43.384Z,16.72
2016-10-02T11:49:44.096Z,16.71
2016-10-02T11:50:44.776Z,16.76
2016-10-02T11:51:45.501Z,16.72
2016-10-02T11:52:46.224Z,16.78
2016-10-02T11:53:46.918Z,16.83
2016-10-02T11:54:47.621Z,16.78
2016-10-02T11:55:48.315Z,16.81
2016-10-02T11:56:49.003Z,16.79
2016-10-02T11:57:49.690Z,16.75
2016-10-02T11:58:50.373Z,16.71
2016-10-02T11:59:51.061Z,16.83
2016-10-02T12:00:51.752Z,16.76
2016-10-02T12:01:52.447Z,16.83
2016-10-02T12:02:53.146Z,16.84
2016-10-02T12:03:53.843Z,16.89
2016-10-02T12:04:54.536Z,16.86
2016-10-02T12:05:55.232Z,16.93
2016-10-02T12:06:55.933Z,16.91
2016-10-02T12:07:56.655Z,16.9
2016-10-02T12:08:57.343Z,16.96
2016-10-02T12:09:58.027Z,17.01
2016-10-02T12:10:58.723Z,17.11
2016-10-02T12:11:59.413Z,17.05
2016-10-02T12:13:00.105Z,17.09
2016-10-02T12:14:00.788Z,17.16
2016-10-02T12:15:01.495Z,17.14
2016-10-02T12:16:02.203Z,17.19
2016-10-02T12:17:02.890Z,17.14
2016-10-02T12:18:03.603Z,17.14
2016-10-02T12:19:04.306Z,17.14
2016-10-02T12:20:05.019Z,17.11
2016-10-02T12:21:05.710Z,17.09
2016-10-02T12:22:06.391Z,17.22
2016-10-02T12:23:07.082Z,17.08
2016-10-02T12:24:07.791Z,17.05
2016-10-02T12:25:09.841Z,17.11
2016-10-02T12:26:11.522Z,17.11
2016-10-02T12:27:12.227Z,17.08
2016-10-02T12:28:12.920Z,17.12
2016-10-02T12:29:13.744Z,17.02
2016-10-02T12:30:14.495Z,17.04
2016-10-02T12:31:15.511Z,17.08
2016-10-02T12:32:16.241Z,17.01
2016-10-02T12:33:16.944Z,17.05
2016-10-02T12:34:17.669Z,17.08
2016-10-02T12:35:18.673Z,17.15
2016-10-02T12:36:19.367Z,17.08
2016-10-02T12:37:20.081Z,17.09
2016-10-02T12:38:20.802Z,17.04
2016-10-02T12:39:21.514Z,17.05
2016-10-02T12:40:22.216Z,17.02
2016-10-02T12:41:23.072Z,16.97
2016-10-02T12:42:23.889Z,17.01
2016-10-02T12:43:24.590Z,17.04
2016-10-02T12:44:25.293Z,17.05
2016-10-02T12:45:26.004Z,16.99
2016-10-02T12:46:26.705Z,16.99
2016-10-02T12:47:27.536Z,17.05
2016-10-02T12:48:28.237Z,16.96
2016-10-02T12:49:28.958Z,17.02
2016-10-02T12:50:29.645Z,16.97
2016-10-02T12:51:30.340Z,16.93
2016-10-02T12:52:31.106Z,16.89
2016-10-02T12:53:31.807Z,16.91
2016-10-02T12:54:32.577Z,16.87
2016-10-02T12:55:33.270Z,16.83
2016-10-02T12:56:34.067Z,16.89
2016-10-02T12:57:34.670Z,16.76
2016-10-02T12:58:35.372Z,16.76
2016-10-02T12:59:36.055Z,16.74
2016-10-02T13:00:37.086Z,16.78
2016-10-02T13:01:37.796Z,16.68
2016-10-02T13:02:38.488Z,16.65
2016-10-02T13:03:39.672Z,16.58
2016-10-02T13:04:40.378Z,16.31